Avon Lake, Iowa
Current Conditions -  °F | °C
As of 5:54 AM on Monday 24 Nov 2014 (Local Time) from KDSM Reporting Station
Overcast Overcast  
Wind Chill: -9°   Ceiling: 2100
Heat Index: -2°   Visibility: 10mi
Dew Point: -6°   Wind: 23mph
Humidity: 75%   Direction: 300°WNW
Pressure: 29.45"   Gusts: 32mph
Location:  41.4707°N, 93.4797°W
Report Text: KDSM 241154Z 30020G28KT 10SM OVC021 M02/M06 A2945 RMK AO2 PK WND 32032/1130 SLP978 70010 T10171056 10022 21017 51016
Loading
Personal Weather Stations






























Interactive Weather Map New forecast layout! Learn more

10-Day Weather Forecast

Advertisements
Track Severe Weather on mobile